createdAt,value
2019-02-14T08:18:50.009Z,97.0
2019-02-14T08:20:50.061Z,97.2
2019-02-14T08:22:50.009Z,96.1
2019-02-14T08:24:50.045Z,94.2
2019-02-14T08:26:50.215Z,94.6
2019-02-14T08:28:50.287Z,95.5
2019-02-14T08:30:50.291Z,95.7
2019-02-14T08:32:50.624Z,96.0
2019-02-14T08:34:50.119Z,96.6
2019-02-14T08:36:50.167Z,96.5
2019-02-14T08:38:50.102Z,96.0
2019-02-14T08:40:50.024Z,95.1
2019-02-14T08:42:49.952Z,95.4
2019-02-14T08:44:49.991Z,94.9
2019-02-14T08:46:50.051Z,94.2
2019-02-14T08:48:50.047Z,94.3
2019-02-14T08:50:50.081Z,93.9
2019-02-14T08:52:50.050Z,93.1
2019-02-14T08:54:50.074Z,92.6
2019-02-14T08:56:50.179Z,89.6
2019-02-14T08:58:50.123Z,89.4
2019-02-14T09:00:50.118Z,90.6
2019-02-14T09:02:50.163Z,91.3
2019-02-14T09:04:50.662Z,89.1
2019-02-14T09:06:50.724Z,88.2
2019-02-14T09:08:49.802Z,87.4
2019-02-14T09:10:49.803Z,86.2
2019-02-14T09:12:49.833Z,86.2
2019-02-14T09:14:49.796Z,85.0
2019-02-14T09:16:49.922Z,83.6
2019-02-14T09:18:50.029Z,83.5
2019-02-14T09:20:49.903Z,82.3
2019-02-14T09:22:49.946Z,82.9
2019-02-14T09:24:50.058Z,82.6
2019-02-14T09:26:50.069Z,80.9
2019-02-14T09:28:50.057Z,79.6
2019-02-14T09:30:50.062Z,80.6
2019-02-14T09:32:50.095Z,80.3
2019-02-14T09:34:50.539Z,81.4
2019-02-14T09:36:50.532Z,80.8
2019-02-14T09:38:50.517Z,81.3
2019-02-14T09:40:50.513Z,80.7
2019-02-14T09:42:50.597Z,78.0
2019-02-14T09:44:50.568Z,79.2
2019-02-14T09:46:50.650Z,78.2
2019-02-14T09:48:50.751Z,77.6
2019-02-14T09:50:50.021Z,78.2
2019-02-14T09:52:50.179Z,78.3
2019-02-14T09:54:50.440Z,78.7
2019-02-14T09:56:50.594Z,78.8
2019-02-14T09:58:50.689Z,76.7
2019-02-14T10:00:49.835Z,78.1
2019-02-14T10:02:49.965Z,78.7
2019-02-14T10:04:50.429Z,76.6
2019-02-14T10:06:50.512Z,76.1
2019-02-14T10:08:50.695Z,74.4
2019-02-14T10:10:50.049Z,75.6
2019-02-14T10:12:50.085Z,75.5
2019-02-14T10:14:50.078Z,76.2
2019-02-14T10:16:50.215Z,73.9
2019-02-14T10:18:50.173Z,74.8
2019-02-14T10:20:50.218Z,73.4
2019-02-14T10:22:50.167Z,70.8
2019-02-14T10:24:50.158Z,70.3
2019-02-14T10:26:50.194Z,70.8
2019-02-14T10:28:50.165Z,69.6
2019-02-14T10:30:50.084Z,68.6
2019-02-14T10:32:50.326Z,69.2
2019-02-14T10:34:50.103Z,68.1
2019-02-14T10:36:50.334Z,68.0
2019-02-14T10:38:50.484Z,69.0
2019-02-14T10:40:50.670Z,68.5
2019-02-14T10:42:49.937Z,69.7
2019-02-14T10:44:50.085Z,70.5
2019-02-14T10:46:50.349Z,70.4
2019-02-14T10:48:50.483Z,67.8
2019-02-14T10:50:50.617Z,66.5
2019-02-14T10:52:50.852Z,64.6
2019-02-14T10:54:50.021Z,65.6
2019-02-14T10:56:50.179Z,64.1
2019-02-14T10:58:50.304Z,66
2019-02-14T11:00:50.471Z,65
2019-02-14T11:02:50.624Z,65
2019-02-14T11:04:50.387Z,65
2019-02-14T11:06:50.698Z,65
2019-02-14T11:08:50.919Z,65
2019-02-14T11:10:50.228Z,64
2019-02-14T11:12:50.392Z,64
2019-02-14T11:14:50.640Z,63
2019-02-14T11:16:50.836Z,63
2019-02-14T11:18:50.072Z,63
2019-02-14T11:20:50.220Z,63
2019-02-14T11:22:50.462Z,63
2019-02-14T11:24:50.164Z,62
2019-02-14T11:26:50.369Z,62
2019-02-14T11:28:50.055Z,62
2019-02-14T11:30:50.209Z,62
2019-02-14T11:32:50.420Z,62
2019-02-14T11:34:50.976Z,62
2019-02-14T11:36:50.277Z,62
2019-02-14T11:38:50.553Z,62
2019-02-14T11:40:50.741Z,63
2019-02-14T11:42:49.984Z,63
2019-02-14T11:44:50.224Z,63
2019-02-14T11:46:52.458Z,63
2019-02-14T11:48:50.642Z,63
2019-02-14T11:50:50.789Z,64
2019-02-14T11:52:50.128Z,64
2019-02-14T11:54:50.309Z,63
2019-02-14T11:56:50.538Z,63
2019-02-14T11:58:50.704Z,63
2019-02-14T12:00:49.963Z,63
2019-02-14T12:02:57.052Z,63
2019-02-14T12:04:50.666Z,64
2019-02-14T12:06:51.390Z,64
2019-02-14T12:09:01.199Z,64
2019-02-14T12:10:50.437Z,64
2019-02-14T12:12:50.652Z,63
2019-02-14T12:14:50.768Z,63
2019-02-14T12:16:49.975Z,63
2019-02-14T12:18:50.191Z,61
2019-02-14T12:20:50.312Z,61
2019-02-14T12:22:50.499Z,62
2019-02-14T12:24:50.609Z,62
2019-02-14T12:26:50.008Z,61
2019-02-14T12:28:50.144Z,61
2019-02-14T12:30:50.503Z,61
2019-02-14T12:32:50.652Z,61
2019-02-14T12:34:50.033Z,61
2019-02-14T12:36:50.238Z,60
2019-02-14T12:38:50.377Z,59
2019-02-14T12:40:50.603Z,59
2019-02-14T12:42:50.762Z,59
2019-02-14T12:44:50.893Z,59
2019-02-14T12:46:49.983Z,59
2019-02-14T12:48:50.176Z,59
2019-02-14T12:50:50.433Z,59
2019-02-14T12:52:50.692Z,59
2019-02-14T12:54:50.783Z,59
2019-02-14T12:56:49.968Z,60
2019-02-14T12:58:50.099Z,59
2019-02-14T13:00:50.347Z,58
2019-02-14T13:02:50.483Z,58
2019-02-14T13:04:50.087Z,58
2019-02-14T13:06:50.355Z,57
2019-02-14T13:08:50.568Z,58
2019-02-14T13:10:50.654Z,58
2019-02-14T13:12:50.835Z,58
2019-02-14T13:14:50.030Z,57
2019-02-14T13:16:50.317Z,58
2019-02-14T13:18:50.511Z,58
2019-02-14T13:20:50.691Z,58
2019-02-14T13:22:51.012Z,58
2019-02-14T13:24:50.245Z,58
2019-02-14T13:26:50.471Z,58
2019-02-14T13:28:50.542Z,58
2019-02-14T13:30:50.734Z,58
2019-02-14T13:32:50.147Z,58
2019-02-14T13:34:49.975Z,58
2019-02-14T13:36:50.192Z,57
2019-02-14T13:38:50.428Z,57
2019-02-14T13:40:50.568Z,57
2019-02-14T13:42:50.766Z,57
2019-02-14T13:44:50.955Z,57
2019-02-14T13:46:50.377Z,57
2019-02-14T13:48:50.541Z,57
2019-02-14T13:50:50.647Z,57
2019-02-14T13:52:50.948Z,57
2019-02-14T13:54:50.154Z,57
2019-02-14T13:56:54.896Z,57
2019-02-14T13:58:50.029Z,57
2019-02-14T14:00:50.161Z,57
2019-02-14T14:02:50.382Z,57
2019-02-14T14:04:50.147Z,57
2019-02-14T14:06:50.314Z,57
2019-02-14T14:08:50.464Z,58
2019-02-14T14:10:50.653Z,57
2019-02-14T14:12:50.918Z,57
2019-02-14T14:14:50.102Z,57
2019-02-14T14:16:50.409Z,57
2019-02-14T14:18:50.848Z,56
2019-02-14T14:20:50.082Z,57
2019-02-14T14:22:50.302Z,56
2019-02-14T14:24:50.574Z,56
2019-02-14T14:26:50.733Z,55
2019-02-14T14:28:49.998Z,55
2019-02-14T14:30:50.272Z,54
2019-02-14T14:32:50.464Z,55
2019-02-14T14:34:50.899Z,55
2019-02-14T14:36:50.214Z,55
2019-02-14T14:38:50.376Z,55
2019-02-14T14:40:50.654Z,54
2019-02-14T14:42:50.791Z,54
2019-02-14T14:44:50.050Z,54
2019-02-14T14:46:50.252Z,54
2019-02-14T14:48:50.480Z,54
2019-02-14T14:50:50.689Z,53
2019-02-14T14:52:50.772Z,53
2019-02-14T14:54:49.957Z,53
2019-02-14T14:56:50.277Z,53
2019-02-14T14:58:50.495Z,53
2019-02-14T15:00:50.609Z,53
2019-02-14T15:02:50.611Z,53
2019-02-14T15:04:50.318Z,53
2019-02-14T15:06:50.416Z,53
2019-02-14T15:08:50.471Z,53
2019-02-14T15:10:50.384Z,53
2019-02-14T15:12:50.376Z,53
2019-02-14T15:14:50.368Z,53
2019-02-14T15:16:50.452Z,52
2019-02-14T15:18:50.471Z,51
2019-02-14T15:20:50.406Z,52
2019-02-14T15:22:50.489Z,48.7
2019-02-14T15:24:50.474Z,47.9
2019-02-14T15:26:50.617Z,47.2
2019-02-14T15:28:50.608Z,48.1
2019-02-14T15:30:50.582Z,51.9
2019-02-14T15:32:50.568Z,50.6
2019-02-14T15:34:49.988Z,51.4
2019-02-14T15:36:52.126Z,51.1
2019-02-14T15:38:50.192Z,50.6
2019-02-14T15:40:50.262Z,52.4
2019-02-14T15:42:50.313Z,52.1
2019-02-14T15:44:50.299Z,51.5
2019-02-14T15:46:50.346Z,52.3
2019-02-14T15:48:50.353Z,50.9
2019-02-14T15:50:57.026Z,51.5
2019-02-14T15:52:57.175Z,52.9
2019-02-14T15:54:50.124Z,56.6
2019-02-14T15:56:56.884Z,54.6
2019-02-14T15:58:49.936Z,54.6
2019-02-14T16:00:54.471Z,54.6
2019-02-14T16:02:52.904Z,55.6
2019-02-14T16:04:55.085Z,56.4
2019-02-14T16:06:54.457Z,56.4
2019-02-14T16:08:50.440Z,56.5
2019-02-14T16:10:56.284Z,57.1
2019-02-14T16:12:50.264Z,55.6
2019-02-14T16:14:50.269Z,58.7
2019-02-14T16:16:50.284Z,59.8
2019-02-14T16:18:50.242Z,59.8
2019-02-14T16:20:50.185Z,59.2
2019-02-14T16:22:50.215Z,61.0
2019-02-14T16:24:50.182Z,63.7
2019-02-14T16:26:50.229Z,62.5
2019-02-14T16:28:50.218Z,64.1
2019-02-14T16:30:50.255Z,64.6
2019-02-14T16:32:50.216Z,63.9
2019-02-14T16:34:50.576Z,72.4
2019-02-14T16:36:50.570Z,73.4
2019-02-14T16:38:50.580Z,75.0
2019-02-14T16:40:50.623Z,76.9
2019-02-14T16:42:50.586Z,76.8
2019-02-14T16:44:50.556Z,77.4
2019-02-14T16:46:50.638Z,78.5
2019-02-14T16:48:50.656Z,78.0
2019-02-14T16:50:50.685Z,79.4
2019-02-14T16:52:50.658Z,78.8
2019-02-14T16:54:50.650Z,80.3
2019-02-14T16:56:49.914Z,81.8
2019-02-14T16:58:49.905Z,81.8
2019-02-14T17:00:49.969Z,82.8
2019-02-14T17:02:50.067Z,83.8
2019-02-14T17:04:50.477Z,81.8
2019-02-14T17:06:50.603Z,83.0
2019-02-14T17:08:50.576Z,83.9
2019-02-14T17:10:50.634Z,84.6
2019-02-14T17:12:50.597Z,84.6
2019-02-14T17:14:50.569Z,86.0
2019-02-14T17:16:50.656Z,85.5
2019-02-14T17:18:50.704Z,85.2
2019-02-14T17:20:50.681Z,85.9
2019-02-14T17:22:50.630Z,84.7
2019-02-14T17:24:50.657Z,89.2
2019-02-14T17:26:49.793Z,88.5
2019-02-14T17:28:49.896Z,87.6
2019-02-14T17:30:49.907Z,87.9
2019-02-14T17:32:50.014Z,89.6
2019-02-14T17:34:50.344Z,89.1
2019-02-14T17:36:50.533Z,88.5
2019-02-14T17:38:50.533Z,89.1
2019-02-14T17:40:50.582Z,88.8
2019-02-14T17:42:52.801Z,89.4
2019-02-14T17:44:49.933Z,91.6
2019-02-14T17:46:49.997Z,92.1
2019-02-14T17:48:50.028Z,93.1
2019-02-14T17:50:50.078Z,92.5
2019-02-14T17:52:50.126Z,92.8
2019-02-14T17:54:50.059Z,92.9
2019-02-14T17:56:50.221Z,91.9
2019-02-14T17:58:50.237Z,92.1
2019-02-14T18:00:50.299Z,91.1
2019-02-14T18:02:50.350Z,91.6
2019-02-14T18:04:50.641Z,90.2
2019-02-14T18:06:50.776Z,88.2
2019-02-14T18:08:49.959Z,88.8
2019-02-14T18:10:55.618Z,89.5
2019-02-14T18:12:50.604Z,89.4
2019-02-14T18:14:50.584Z,91.2
2019-02-14T18:16:50.678Z,91.1
2019-02-14T18:18:50.757Z,91.5
2019-02-14T18:20:49.799Z,90.9
2019-02-14T18:22:49.803Z,92.1
2019-02-14T18:24:49.924Z,93.5
2019-02-14T18:26:49.963Z,94.6
2019-02-14T18:28:49.989Z,93.1
2019-02-14T18:30:50.044Z,91.4
2019-02-14T18:32:50.050Z,92.0
2019-02-14T18:34:50.287Z,92.1
2019-02-14T18:36:50.355Z,91.5
2019-02-14T18:38:50.331Z,90.8
2019-02-14T18:40:50.365Z,92.5
2019-02-14T18:42:50.288Z,92.6
2019-02-14T18:44:50.384Z,92.1
2019-02-14T18:46:50.436Z,92.2
2019-02-14T18:48:50.421Z,92.7
2019-02-14T18:50:50.368Z,93.3
2019-02-14T18:52:50.484Z,93.6
2019-02-14T18:54:50.488Z,93.2
2019-02-14T18:56:50.560Z,93.8
2019-02-14T18:58:50.550Z,93.6
2019-02-14T19:00:50.617Z,93.5
2019-02-14T19:02:50.585Z,93.4
2019-02-14T19:04:50.139Z,93.7
2019-02-14T19:06:50.149Z,93.6
2019-02-14T19:08:50.248Z,93.1
